• Join FlightAware (Why Join?)
  • Login
  • US Flag 
12:36PM EDT


 

Airport Tracker/Info


-or-


 

Live Flight TrackerFlight Track Log ✈ TRS362 ✈ 30-Apr-2013 ✈ KLAS - KATL

Flight Track Log - Related Links

Times and Time Zones

All times are in EDT time to prevent confusion due to time zone crossing. See the TRS362 flight status page for this flight to view local times or setup timezone preferences in your user account.

Time Position Orientation Groundspeed Altitude Reporting Facility
EDT Latitude Longitude Course Direction KTS MPH feet Rate Location/Type
10:14AM 36.0761 -115.1789 269° West 183 211 2,900  Level Los Angeles Center
10:15AM 36.0756 -115.2056 269° West 184 212 3,700 2,040 Climbing Los Angeles Center
10:16AM 36.0781 -115.2603 273° West 230 265 5,300 2,520 Climbing Los Angeles Center
10:16AM 36.0883 -115.2839 298° West 243 280 6,300 2,880 Climbing Los Angeles Center
10:17AM 36.1367 -115.2944 350° North 255 293 8,300 2,700 Climbing Los Angeles Center
10:17AM 36.1556 -115.2858 20° North 261 300 9,100 2,160 Climbing Los Angeles Center
10:18AM 36.1903 -115.1972 64° Northeast 305 351 11,100 1,620 Climbing Los Angeles Center
10:19AM 36.1972 -115.1136 84° East 332 382 12,100 1,980 Climbing Los Angeles Center
10:20AM 36.1978 -114.9836 90° East 373 429 14,700 2,460 Climbing Los Angeles Center
10:21AM 36.1994 -114.8458 89° East 396 456 17,200 2,880 Climbing Los Angeles Center
10:22AM 36.2000 -114.6736 90° East 412 474 20,700 2,700 Climbing Los Angeles Center
10:23AM 36.1978 -114.5250 91° East 426 490 22,800 2,040 Climbing Los Angeles Center
10:24AM 36.1947 -114.3694 91° East 443 510 24,900 1,860 Climbing Los Angeles Center
10:25AM 36.1956 -114.2114 90° East 455 524 26,700 1,620 Climbing Los Angeles Center
10:26AM 36.2167 -114.0503 81° East 469 540 28,300 1,380 Climbing Los Angeles Center
10:27AM 36.2328 -113.9203 81° East 476 548 29,600 1,800 Climbing Los Angeles Center
10:28AM 36.2553 -113.7242 82° East 480 552 32,100 1,980 Climbing Los Angeles Center
10:29AM 36.2769 -113.5311 82° East 474 545 33,800 1,500 Climbing Los Angeles Center
10:30AM 36.2956 -113.3700 82° East 474 545 35,200 1,320 Climbing Los Angeles Center
10:31AM 36.3256 -113.2036 77° East 472 543 36,600 1,200 Climbing Los Angeles Center
10:32AM 36.3519 -113.0472 78° East 468 539 37,800 1,080 Climbing Los Angeles Center
10:33AM 36.3789 -112.8914 78° East 466 536 38,900 540 Climbing Los Angeles Center
10:34AM 36.3872 -112.7336 86° East 463 533 39,000  Climbing Los Angeles Center
10:35AM 36.3919 -112.5753 88° East 463 533 39,000  Level Los Angeles Center
10:36AM 36.3978 -112.4164 87° East 463 533 39,000  Level Los Angeles Center
10:37AM 36.4044 -112.2264 87° East 462 532 39,000  Level Los Angeles Center
10:38AM 36.4092 -112.0675 88° East 462 532 39,000  Level Los Angeles Center
10:39AM 36.4136 -111.9081 88° East 464 534 39,000  Level Los Angeles Center
10:40AM 36.4175 -111.7483 88° East 465 535 39,000  Level Los Angeles Center
10:41AM 36.4219 -111.5897 88° East 463 533 39,000  Level Los Angeles Center
10:42AM 36.4264 -111.4331 88° East 459 528 39,000  Level Los Angeles Center
10:43AM 36.4294 -111.2422 89° East 461 531 39,000  Level Los Angeles Center
10:44AM 36.4336 -111.0850 88° East 458 527 39,000  Level Los Angeles Center
10:45AM 36.4361 -110.9264 89° East 461 531 39,000  Level Los Angeles Center
10:46AM 36.4381 -110.8953 86° East 460 529 39,000  Level Denver Center
10:47AM 36.4428 -110.7050 88° East 461 531 39,000  Level Denver Center
10:48AM 36.4439 -110.5469 89° East 461 531 39,000  Level Denver Center
10:49AM 36.4456 -110.3875 89° East 463 533 39,000  Level Denver Center
10:50AM 36.4483 -110.1931 89° East 468 539 39,000  Level Denver Center
10:51AM 36.4511 -110.0328 89° East 468 539 39,000  Level Denver Center
10:52AM 36.4536 -109.8800 89° East 464 534 39,000  Level Denver Center
10:53AM 36.4544 -109.7033 90° East 460 529 39,000  Level Denver Center
10:54AM 36.4550 -109.5500 90° East 462 532 39,000  Level Denver Center
10:55AM 36.4581 -109.3728 89° East 459 528 39,000  Level Denver Center
10:56AM 36.4597 -109.2192 89° East 462 532 39,000  Level Denver Center
10:57AM 36.4603 -109.0386 90° East 465 535 39,000  Level Denver Center
10:58AM 36.4614 -108.8836 89° East 465 535 39,000  Level Denver Center
10:59AM 36.4603 -108.7300 90° East 463 533 39,000  Level Denver Center
11:00AM 36.4622 -108.5511 89° East 462 532 39,000  Level Denver Center
11:01AM 36.4608 -108.3983 91° East 461 531 39,000  Level Denver Center
11:02AM 36.4603 -108.2219 90° East 458 527 39,000  Level Denver Center
11:03AM 36.4597 -108.0708 90° East 456 525 39,000  Level Denver Center
11:04AM 36.4594 -107.8961 90° East 454 522 39,000  Level Denver Center
11:05AM 36.4589 -107.7469 90° East 453 521 39,000  Level Denver Center
11:07AM 36.4583 -107.5978 90° East 451 519 39,000  Level Denver Center
11:08AM 36.4558 -107.4242 91° East 450 518 39,000  Level Denver Center
11:09AM 36.4558 -107.2764 90° East 448 516 39,000  Level Denver Center
11:10AM 36.4539 -107.1275 91° East 450 518 39,000  Level Denver Center
11:11AM 36.4511 -106.9781 91° East 451 519 39,000  Level Denver Center
11:12AM 36.4500 -106.7783 90° East 453 521 39,000  Level Denver Center
11:13AM 36.4472 -106.6297 91° East 452 520 39,000  Level Denver Center
11:14AM 36.4447 -106.4814 91° East 452 520 39,000  Level Albuquerque Center
11:15AM 36.4428 -106.3328 91° East 451 519 39,000  Level Albuquerque Center
11:16AM 36.4394 -106.1711 91° East 449 517 39,000  Level Albuquerque Center
11:17AM 36.4369 -106.0192 91° East 443 510 39,000  Level Albuquerque Center
11:18AM 36.4353 -105.8681 91° East 440 506 39,000  Level Albuquerque Center
11:19AM 36.4283 -105.7117 93° East 448 516 39,000  Level Albuquerque Center
11:20AM 36.4253 -105.5281 91° East 445 512 39,000  Level Albuquerque Center
11:21AM 36.4208 -105.3803 92° East 445 512 39,000  Level Albuquerque Center
11:22AM 36.4172 -105.2319 92° East 435 501 39,000  Level Albuquerque Center
11:23AM 36.4114 -105.0850 93° East 424 488 39,000  Level Albuquerque Center
11:24AM 36.4067 -104.9014 92° East 442 509 39,000  Level Albuquerque Center
11:25AM 36.4019 -104.7472 92° East 443 510 39,000  Level Albuquerque Center
11:26AM 36.3972 -104.5914 92° East 445 512 39,000  Level Albuquerque Center
11:27AM 36.3911 -104.4381 93° East 443 510 39,000  Level Albuquerque Center
11:28AM 36.3864 -104.2828 92° East 443 510 39,000  Level Albuquerque Center
11:29AM 36.3811 -104.1289 92° East 443 510 39,000  Level Albuquerque Center
11:30AM 36.3758 -103.9769 92° East 439 505 39,000  Level Albuquerque Center
11:31AM 36.3700 -103.8242 93° East 439 505 39,000  Level Albuquerque Center
11:32AM 36.3625 -103.6444 93° East 441 507 39,000  Level Albuquerque Center
11:33AM 36.3567 -103.4889 93° East 445 512 39,000  Level Albuquerque Center
11:34AM 36.3500 -103.3328 93° East 446 513 39,000  Level Albuquerque Center
11:35AM 36.3425 -103.1769 93° East 447 514 39,000  Level Albuquerque Center
11:36AM 36.3350 -103.0219 93° East 448 516 39,000  Level Albuquerque Center
11:37AM 36.3269 -102.8628 94° East 446 513 39,000  Level Albuquerque Center
11:38AM 36.3206 -102.7081 93° East 449 517 39,000  Level Albuquerque Center
11:39AM 36.3128 -102.5564 94° East 445 512 39,000  Level Albuquerque Center
11:40AM 36.3050 -102.4053 94° East 440 506 39,000  Level Albuquerque Center
11:42AM 36.2967 -102.2267 93° East 435 501 39,000  Level Albuquerque Center
11:43AM 36.2883 -102.0761 94° East 436 502 39,000  Level Albuquerque Center
11:44AM 36.2800 -101.9286 94° East 432 497 39,000  Level Albuquerque Center
11:45AM 36.2714 -101.7786 94° East 434 499 39,000  Level Albuquerque Center
11:46AM 36.2639 -101.6294 94° East 433 498 39,000  Level Albuquerque Center
11:47AM 36.2547 -101.4803 94° East 434 499 39,000  Level Albuquerque Center
11:48AM 36.2439 -101.3011 94° East 434 499 39,000  Level Albuquerque Center
11:49AM 36.2353 -101.1592 94° East 437 503 39,000  Level Albuquerque Center
11:50AM 36.2256 -101.0092 95° East 437 503 39,000  Level Albuquerque Center
11:51AM 36.2167 -100.8600 94° East 435 501 39,000  Level Albuquerque Center
11:52AM 36.2069 -100.7114 95° East 433 498 39,000  Level Albuquerque Center
11:53AM 36.1953 -100.5328 95° East 433 498 39,000  Level Albuquerque Center
11:54AM 36.1842 -100.3853 95° East 432 497 39,000  Level Albuquerque Center
11:54AM 36.1786 -100.3269 97° East 430 495 39,000  Level Kansas City Center
11:55AM 36.1700 -100.1781 94° East 432 497 39,000  Level Kansas City Center
11:56AM 36.1594 -100.0306 95° East 431 496 39,000  Level Kansas City Center
11:57AM 36.1489 -99.8828 95° East 431 496 39,000  Level Kansas City Center
11:58AM 36.1386 -99.7339 95° East 433 498 39,000  Level Kansas City Center
11:59AM 36.1281 -99.5831 95° East 436 502 39,000  Level Kansas City Center
12:01PM 36.1164 -99.4331 95° East 436 502 39,000  Level Kansas City Center
12:02PM 36.1042 -99.2622 95° East 437 503 39,000  Level Kansas City Center
12:03PM 36.0925 -99.1114 95° East 440 506 39,000  Level Kansas City Center
12:04PM 36.0794 -98.9622 96° East 439 505 39,000  Level Kansas City Center
12:05PM 36.0672 -98.8142 96° East 435 501 39,000  Level Kansas City Center
12:06PM 36.0533 -98.6439 96° East 432 497 39,000  Level Kansas City Center
12:07PM 36.0414 -98.4967 96° East 430 495 39,000  Level Kansas City Center
12:08PM 36.0297 -98.3511 96° East 427 491 39,000  Level Kansas City Center
12:09PM 36.0167 -98.2067 96° East 424 488 39,000  Level Kansas City Center
12:10PM 36.0044 -98.0611 96° East 423 487 39,000  Level Kansas City Center
12:11PM 35.9906 -97.9111 96° East 425 489 39,000  Level Kansas City Center
12:12PM 35.9794 -97.7650 95° East 427 491 39,000  Level Kansas City Center
12:13PM 35.9625 -97.5900 97° East 427 491 39,000  Level Kansas City Center
12:14PM 35.9492 -97.4436 96° East 427 491 39,000  Level Kansas City Center
12:15PM 35.9353 -97.2986 97° East 426 490 39,000  Level Kansas City Center
12:16PM 35.9222 -97.1528 96° East 425 489 39,000  Level Kansas City Center
12:17PM 35.9086 -97.0072 97° East 426 490 39,000  Level Kansas City Center
12:18PM 35.8947 -96.8603 97° East 429 494 39,000  Level Kansas City Center
12:19PM 35.8783 -96.7122 98° East 433 498 39,000  Level Kansas City Center
12:20PM 35.8603 -96.5336 97° East 437 503 39,000  Level Kansas City Center
12:21PM 35.8444 -96.3853 97° East 437 503 39,000  Level Kansas City Center
12:22PM 35.8278 -96.2283 97° East 435 501 39,000  Level Kansas City Center
12:23PM 35.8128 -96.0811 97° East 434 499 39,000  Level Kansas City Center
12:24PM 35.7972 -95.9353 97° East 433 498 39,000  Level Kansas City Center
12:25PM 35.7819 -95.7900 97° East 430 495 39,000  Level Kansas City Center
12:26PM 35.7667 -95.6450 97° East 429 494 39,000  Level Kansas City Center
12:27PM 35.7478 -95.4692 97° East 432 497 39,000  Level Kansas City Center
12:28PM 35.7317 -95.3211 98° East 436 502 39,000  Level Kansas City Center
12:29PM 35.7142 -95.1733 98° East 438 504 39,000  Level Kansas City Center
12:31PM 35.6992 -95.0258 97° East 438 504 39,000  Level Kansas City Center
12:31PM 35.6764 -94.8753 101° East 445 512 39,000  Level Memphis Center
12:32PM 35.6608 -94.7264 97° East 445 512 39,000  Level Memphis Center
12:33PM 35.6433 -94.5747 98° East 445 512 39,000  Level Memphis Center
12:34PM 35.6231 -94.4256 99° East 445 512 39,000  Level Memphis Center
12:35PM 35.6069 -94.2767 98° East 445 512 39,000  Level Memphis Center
12:36PM 35.5889 -94.1253 98° East 445 512 39,000  Level Memphis Center
12:37PM 35.5703 -93.9736 99° East 450 518 39,000  Level Memphis Center
12:38PM 35.5539 -93.8200 97° East 450 518 39,000  Level Memphis Center
12:39PM 35.5331 -93.6686 100° East 450 518 39,000  Level Memphis Center
12:40PM 35.5119 -93.5122 99° East 450 518 39,000  Level Memphis Center
12:41PM 35.4969 -93.3611 97° East 450 518 39,000  Level Memphis Center
12:42PM 35.4775 -93.2100 99° East 445 512 39,000  Level Memphis Center
12:43PM 35.4561 -93.0536 99° East 459 528 39,000  Level Memphis Center
12:44PM 35.4364 -92.8978 99° East 459 528 39,000  Level Memphis Center
12:45PM 35.4144 -92.7339 99° East 464 534 39,000  Level Memphis Center
12:46PM 35.3925 -92.5756 100° East 469 540 39,000  Level Memphis Center
12:47PM 35.3781 -92.4325 97° East 458 527 39,000  Level Memphis Center
12:48PM 35.3494 -92.2664 102° East 474 545 39,000  Level Memphis Center
12:49PM 35.3331 -92.1106 97° East 464 534 39,000  Level Memphis Center
12:50PM 35.3100 -91.9575 100° East 464 534 39,000  Level Memphis Center
12:51PM 35.2892 -91.7994 99° East 464 534 39,000  Level Memphis Center
12:52PM 35.2678 -91.6439 100° East 465 535 39,000  Level Memphis Center
12:53PM 35.2422 -91.4858 101° East 470 541 39,000  Level Memphis Center
12:54PM 35.2183 -91.3331 101° East 465 535 39,000  Level Memphis Center
12:55PM 35.2006 -91.1931 99° East 465 535 39,000  Level Memphis Center
12:56PM 35.1744 -91.0303 101° East 470 541 39,000  Level Memphis Center
12:57PM 35.1544 -90.8725 99° East 465 535 39,000  Level Memphis Center
12:58PM 35.1300 -90.7125 101° East 471 542 39,000  Level Memphis Center
12:59PM 35.1053 -90.5525 101° East 471 542 39,000  Level Memphis Center
01:00PM 35.0803 -90.3953 101° East 471 542 39,000  Level Memphis Center
01:01PM 35.0531 -90.2175 101° East 476 548 39,000  Level Memphis Center
01:02PM 35.0300 -90.0578 100° East 476 548 39,000  Level Memphis Center
01:03PM 35.0064 -89.8981 100° East 481 554 39,000  Level Memphis Center
01:04PM 34.9828 -89.7286 100° East 496 571 39,000  Level Memphis Center
01:05PM 34.9589 -89.5792 101° East 503 579 39,000  Level Memphis Center
01:06PM 34.9328 -89.4147 101° East 498 573 39,000  Level Memphis Center
01:07PM 34.9086 -89.2531 100° East 493 567 39,000  Level Memphis Center
01:08PM 34.8839 -89.0864 100° East 488 562 39,000  Level Memphis Center
01:09PM 34.8572 -88.9247 101° East 488 562 39,000  Level Memphis Center
01:10PM 34.8300 -88.7481 101° East 483 556 39,000 -360 Level Memphis Center
01:11PM 34.8047 -88.5817 100° East 496 571 38,300 -900 Descending Memphis Center
01:12PM 34.7772 -88.4203 102° East 489 563 37,300 -960 Descending Memphis Center
01:13PM 34.7494 -88.2517 101° East 489 563 36,400 -960 Descending Memphis Center
01:14PM 34.7236 -88.0806 100° East 513 590 35,400 -1,020 Descending Memphis Center
01:15PM 34.7017 -87.9194 99° East 495 570 34,400 -960 Descending Memphis Center
01:16PM 34.6714 -87.7636 103° East 481 554 33,500 -960 Descending Memphis Center
01:17PM 34.6472 -87.6056 100° East 475 547 32,500 -900 Descending Memphis Center
01:18PM 34.6211 -87.4725 103° East 463 533 31,700 -600 Descending Memphis Center
01:20PM 34.5797 -87.2203 101° East 469 540 31,000 -300 Descending Atlanta Center
01:21PM 34.5500 -87.0703 103° East 469 540 31,000  Level Atlanta Center
01:22PM 34.5203 -86.9228 104° East 457 526 31,000  Level Atlanta Center
01:23PM 34.4925 -86.7683 102° East 457 526 31,000  Level Atlanta Center
01:24PM 34.4622 -86.6186 104° East 457 526 31,000 -480 Level Atlanta Center
01:25PM 34.4297 -86.4667 104° East 457 526 30,100 -960 Descending Atlanta Center
01:26PM 34.3803 -86.3242 113° Southeast 457 526 29,100 -1,020 Descending Atlanta Center
01:27PM 34.3328 -86.1819 112° Southeast 462 532 28,100 -1,080 Descending Atlanta Center
01:28PM 34.2853 -86.0400 112° Southeast 457 526 27,000 -1,320 Descending Atlanta Center
01:29PM 34.2372 -85.9031 113° Southeast 450 518 25,500 -1,980 Descending Atlanta Center
01:30PM 34.1992 -85.7894 112° Southeast 422 486 23,100 -2,400 Descending Atlanta Center
01:31PM 34.1572 -85.6606 111° Southeast 408 470 20,700 -2,400 Descending Atlanta Center
01:32PM 34.1108 -85.5267 113° Southeast 402 463 18,400 -2,280 Descending Atlanta Center
01:33PM 34.0683 -85.4081 113° Southeast 394 453 16,200 -2,040 Descending Atlanta Center
01:34PM 34.0319 -85.3022 113° Southeast 370 426 14,400 -1,680 Descending Atlanta Center
01:35PM 33.9953 -85.2039 114° Southeast 334 384 12,900 -1,200 Descending Atlanta Center
01:36PM 33.9628 -85.1133 113° Southeast 309 356 12,000 -1,140 Descending Atlanta Center
01:37PM 33.9217 -85.0253 119° Southeast 296 341 10,700 -1,440 Descending Atlanta Center
01:38PM 33.8617 -84.9644 140° Southeast 276 318 9,200 -900 Descending Atlanta Center
01:39PM 33.7869 -84.9311 160° South 276 318 9,000 -900 Descending Atlanta Center
01:40PM 33.7139 -84.9003 161° South 281 323 7,400 -1,020 Descending Atlanta Center
01:41PM 33.6475 -84.8622 154° Southeast 268 308 7,000 -540 Descending Atlanta Center
01:42PM 33.6314 -84.7872 104° East 223 257 6,400 -840 Descending Atlanta Center
01:42PM 33.6333 -84.7500 86° East 247 284 5,900 -1,320 Descending Atlanta TRACON
01:43PM 33.6333 -84.6833 90° East 229 264 4,700 -1,200 Descending Atlanta TRACON
01:44PM 33.6333 -84.6000 90° East 220 253 3,500 -1,140 Descending Atlanta TRACON
01:45PM 33.6333 -84.5333 90° East 192 221 2,500 -900 Descending Atlanta TRACON
01:46PM 33.6333 -84.4833 90° East 147 169 1,700 -840 Descending Atlanta TRACON
01:48PM 33.6367 -84.4279 90° East  Level Estimated
01:55PM 33.6367 -84.4279 90° East  Level Estimated
01:56PM 33.6367 -84.4279 90° East  Level Estimated